East Canton, Ohio
Current Conditions -  °F | °C
As of 10:51 AM on Saturday 25 Oct 2014 (Local Time) from KCAK Reporting Station
Broken Clouds Broken Clouds  
Wind Chill: 56°   Ceiling: 7500
Heat Index: 56°   Visibility: 7mi
Dew Point: 47°   Wind: 13mph
Humidity: 72%   Direction: 220°SW
Pressure: 29.88"   Gusts: NA
Location:  40.7679°N, 81.2601°W
Report Text: KCAK 251451Z 22011KT 7SM BKN075 BKN200 13/08 A2988 RMK AO2 SLP120 T01330083 58018
Loading
Personal Weather Stations






























Interactive Weather Map
Tropical Storm Tracking
New forecast layout! Learn more

10-Day Weather Forecast

Advertisements
Track Severe Weather on mobile